createdAt,value
2023-03-18T00:01:08.072Z,99705.96
2023-03-18T00:04:10.295Z,99704.70
2023-03-18T00:07:09.865Z,99704.67
2023-03-18T00:10:07.308Z,99709.11
2023-03-18T00:13:10.709Z,99713.35
2023-03-18T00:16:22.316Z,99713.84
2023-03-18T00:19:29.709Z,99713.55
2023-03-18T00:22:27.252Z,99718.48
2023-03-18T00:25:28.617Z,99722.04
2023-03-18T00:28:31.632Z,99729.81
2023-03-18T00:31:27.899Z,99733.02
2023-03-18T00:34:29.061Z,99733.69
2023-03-18T00:37:30.668Z,99733.61
2023-03-18T00:40:28.699Z,99732.50
2023-03-18T00:43:22.212Z,99737.30
2023-03-18T00:46:24.942Z,99741.39
2023-03-18T00:49:18.362Z,99743.64
2023-03-18T00:52:19.900Z,99746.45
2023-03-18T00:55:30.711Z,99742.48
2023-03-18T00:58:42.041Z,99739.16
2023-03-18T01:01:36.839Z,99738.34
2023-03-18T01:04:29.893Z,99740.36
2023-03-18T01:07:41.648Z,99740.17
2023-03-18T01:10:47.103Z,99740.09
2023-03-18T01:13:48.254Z,99740.95
2023-03-18T01:16:39.087Z,99743.38
2023-03-18T01:19:40.194Z,99747.99
2023-03-18T01:22:45.206Z,99749.27
2023-03-18T01:25:45.719Z,99750.84
2023-03-18T01:28:56.502Z,99753.95
2023-03-18T01:31:52.915Z,99756.67
2023-03-18T01:34:55.532Z,99757.86
2023-03-18T01:38:06.904Z,99758.00
2023-03-18T01:41:18.925Z,99760.70
2023-03-18T01:44:16.060Z,99764.05
2023-03-18T01:47:26.915Z,99765.33
2023-03-18T01:50:23.291Z,99768.77
2023-03-18T01:53:37.663Z,99770.42
2023-03-18T01:56:50.764Z,99768.45
2023-03-18T02:00:02.114Z,99770.73
2023-03-18T02:03:06.392Z,99771.90
2023-03-18T02:06:17.222Z,99772.85
2023-03-18T02:09:19.319Z,99779.79
2023-03-18T02:12:24.409Z,99779.46
2023-03-18T02:15:18.758Z,99779.59
2023-03-18T02:18:21.697Z,99778.70
2023-03-18T02:21:39.345Z,99781.08
2023-03-18T02:24:46.684Z,99785.98
2023-03-18T02:27:52.730Z,99788.20
2023-03-18T02:31:05.676Z,99792.44
2023-03-18T02:34:17.992Z,99791.52
2023-03-18T02:37:28.854Z,99794.35
2023-03-18T02:40:32.178Z,99794.40
2023-03-18T02:43:29.674Z,99797.52
2023-03-18T02:46:44.189Z,99803.15
2023-03-18T02:49:55.869Z,99803.18
2023-03-18T02:53:08.132Z,99802.89
2023-03-18T02:55:59.358Z,99801.19
2023-03-18T02:59:03.050Z,99807.34
2023-03-18T03:02:14.263Z,99813.21
2023-03-18T03:05:09.427Z,99816.55
2023-03-18T03:08:03.192Z,99817.73
2023-03-18T03:11:09.022Z,99819.02
2023-03-18T03:14:19.801Z,99821.40
2023-03-18T03:17:30.958Z,99823.04
2023-03-18T03:20:42.188Z,99822.80
2023-03-18T03:23:43.399Z,99825.69
2023-03-18T03:26:49.572Z,99823.27
2023-03-18T03:29:50.487Z,99828.52
2023-03-18T03:33:01.697Z,99829.02
2023-03-18T03:36:13.630Z,99833.30
2023-03-18T03:39:04.378Z,99836.98
2023-03-18T03:41:59.887Z,99836.89
2023-03-18T03:45:12.651Z,99833.29
2023-03-18T03:48:03.469Z,99831.11
2023-03-18T03:50:57.495Z,99834.72
2023-03-18T03:54:00.346Z,99837.95
2023-03-18T03:57:02.226Z,99841.50
2023-03-18T04:00:15.322Z,99844.15
2023-03-18T04:03:27.176Z,99845.91
2023-03-18T04:06:28.379Z,99845.40
2023-03-18T04:09:39.181Z,99843.62
2023-03-18T04:12:49.860Z,99843.59
2023-03-18T04:15:47.831Z,99842.82
2023-03-18T04:18:52.839Z,99847.81
2023-03-18T04:22:03.980Z,99844.40
2023-03-18T04:25:02.999Z,99842.48
2023-03-18T04:28:14.308Z,99842.77
2023-03-18T04:31:25.309Z,99845.27
2023-03-18T04:34:30.022Z,99842.73
2023-03-18T04:37:38.605Z,99839.42
2023-03-18T04:40:40.294Z,99842.09
2023-03-18T04:43:51.066Z,99851.26
2023-03-18T04:46:54.967Z,99851.46
2023-03-18T04:50:06.164Z,99858.90
2023-03-18T04:53:10.109Z,99862.47
2023-03-18T04:56:21.361Z,99866.12
2023-03-18T04:59:32.205Z,99868.53
2023-03-18T05:02:45.470Z,99868.54
2023-03-18T05:05:53.765Z,99868.97
2023-03-18T05:08:59.392Z,99871.77
2023-03-18T05:12:13.494Z,99872.06
2023-03-18T05:15:24.342Z,99876.20
2023-03-18T05:18:18.562Z,99880.66
2023-03-18T05:21:12.676Z,99881.44
2023-03-18T05:24:16.266Z,99883.85
2023-03-18T05:27:27.851Z,99887.05
2023-03-18T05:30:37.465Z,99888.44
2023-03-18T05:33:48.642Z,99887.59
2023-03-18T05:36:58.833Z,99887.27
2023-03-18T05:39:52.849Z,99888.52
2023-03-18T05:43:04.293Z,99890.34
2023-03-18T05:46:15.192Z,99893.28
2023-03-18T05:49:25.429Z,99896.80
2023-03-18T05:52:36.497Z,99898.45
2023-03-18T05:55:47.664Z,99901.98
2023-03-18T05:58:48.188Z,99904.29
2023-03-18T06:02:17.952Z,99907.83
2023-03-18T06:05:31.736Z,99904.04
2023-03-18T06:08:42.990Z,99902.10
2023-03-18T06:11:53.788Z,99904.04
2023-03-18T06:14:58.290Z,99905.27
2023-03-18T06:18:03.842Z,99912.77
2023-03-18T06:21:23.602Z,99913.21
2023-03-18T06:24:29.477Z,99916.14
2023-03-18T06:27:42.755Z,99918.52
2023-03-18T06:30:50.098Z,99927.45
2023-03-18T06:33:55.221Z,99931.69
2023-03-18T06:37:02.075Z,99934.25
2023-03-18T06:39:57.877Z,99932.05
2023-03-18T06:42:59.786Z,99934.39
2023-03-18T06:46:17.434Z,99941.92
2023-03-18T06:49:31.114Z,99954.95
2023-03-18T06:52:42.653Z,99964.66
2023-03-18T06:55:54.627Z,99965.52
2023-03-18T06:59:02.777Z,99967.94
2023-03-18T07:02:06.639Z,99970.69
2023-03-18T07:05:18.621Z,99971.79
2023-03-18T07:08:13.276Z,99975.98
2023-03-18T07:11:25.596Z,99985.46
2023-03-18T07:14:16.449Z,99985.79
2023-03-18T07:17:27.302Z,99990.86
2023-03-18T07:20:42.390Z,99990.84
2023-03-18T07:23:42.431Z,99996.07
2023-03-18T07:26:53.794Z,99998.63
2023-03-18T07:30:06.496Z,100004.92
2023-03-18T07:32:57.909Z,100006.74
2023-03-18T07:36:03.035Z,100013.85
2023-03-18T07:38:57.069Z,100012.45
2023-03-18T07:42:11.444Z,100017.20
2023-03-18T07:45:22.241Z,100016.53
2023-03-18T07:48:34.353Z,100016.34
2023-03-18T07:51:45.149Z,100019.40
2023-03-18T07:54:38.665Z,100025.59
2023-03-18T07:57:38.960Z,100029.70
2023-03-18T08:00:35.927Z,100031.17
2023-03-18T08:03:47.728Z,100034.09
2023-03-18T08:06:41.774Z,100037.27
2023-03-18T08:09:52.606Z,100036.23
2023-03-18T08:12:53.888Z,100034.85
2023-03-18T08:15:58.874Z,100037.63
2023-03-18T08:18:49.727Z,100043.85
2023-03-18T08:21:43.931Z,100046.64
2023-03-18T08:24:46.421Z,100053.91
2023-03-18T08:27:44.623Z,100055.23
2023-03-18T08:30:39.940Z,100053.31
2023-03-18T08:33:54.301Z,100056.09
2023-03-18T08:36:54.899Z,100059.63
2023-03-18T08:39:50.222Z,100058.05
2023-03-18T08:42:47.248Z,100061.27
2023-03-18T08:45:39.322Z,100063.81
2023-03-18T08:48:30.911Z,100066.34
2023-03-18T08:51:22.373Z,100071.02
2023-03-18T08:54:23.698Z,100077.67
2023-03-18T08:57:34.682Z,100078.77
2023-03-18T09:00:40.093Z,100077.98
2023-03-18T09:03:31.661Z,100083.64
2023-03-18T09:06:25.329Z,100088.45
2023-03-18T09:09:43.643Z,100086.91
2023-03-18T09:12:47.912Z,100084.15
2023-03-18T09:15:42.444Z,100083.79
2023-03-18T09:18:53.355Z,100087.47
2023-03-18T09:21:44.736Z,100089.57
2023-03-18T09:24:35.161Z,100091.18
2023-03-18T09:27:37.035Z,100091.55
2023-03-18T09:30:28.206Z,100092.12
2023-03-18T09:33:27.663Z,100093.31
2023-03-18T09:36:24.238Z,100093.31
2023-03-18T09:39:35.323Z,100096.34
2023-03-18T09:42:33.361Z,100098.25
2023-03-18T09:45:30.398Z,100106.99
2023-03-18T09:48:47.465Z,100107.28
2023-03-18T09:51:52.062Z,100114.59
2023-03-18T09:54:47.722Z,100116.43
2023-03-18T09:57:52.374Z,100119.05
2023-03-18T10:00:44.672Z,100125.70
2023-03-18T10:03:39.777Z,100124.52
2023-03-18T10:06:43.216Z,100131.54
2023-03-18T10:09:56.140Z,100134.80
2023-03-18T10:12:49.985Z,100132.16
2023-03-18T10:15:54.210Z,100132.95
2023-03-18T10:18:55.808Z,100137.63
2023-03-18T10:22:19.014Z,100144.64
2023-03-18T10:25:20.125Z,100145.73
2023-03-18T10:28:27.681Z,100148.94
2023-03-18T10:31:56.548Z,100151.83
2023-03-18T10:34:59.691Z,100151.88
2023-03-18T10:37:58.763Z,100150.59
2023-03-18T10:40:49.545Z,100152.73
2023-03-18T10:43:53.565Z,100153.31
2023-03-18T10:46:52.526Z,100155.21
2023-03-18T10:49:47.278Z,100156.39
2023-03-18T10:52:51.988Z,100162.98
2023-03-18T10:55:57.592Z,100166.64
2023-03-18T10:58:52.552Z,100169.92
2023-03-18T11:01:44.381Z,100171.38
2023-03-18T11:04:48.793Z,100174.66
2023-03-18T11:07:56.144Z,100180.55
2023-03-18T11:10:48.495Z,100186.84
2023-03-18T11:13:48.499Z,100187.81
2023-03-18T11:16:42.630Z,100192.00
2023-03-18T11:19:34.236Z,100194.39
2023-03-18T11:22:36.992Z,100195.52
2023-03-18T11:25:31.543Z,100194.17
2023-03-18T11:28:23.701Z,100199.29
2023-03-18T11:31:17.892Z,100201.13
2023-03-18T11:34:12.050Z,100201.15
2023-03-18T11:37:13.279Z,100206.96
2023-03-18T11:40:20.166Z,100206.05
2023-03-18T11:43:25.700Z,100210.89
2023-03-18T11:46:16.330Z,100216.23
2023-03-18T11:49:28.555Z,100219.80
2023-03-18T11:52:29.744Z,100221.04
2023-03-18T11:55:35.935Z,100224.40
2023-03-18T11:58:57.884Z,100227.81
2023-03-18T12:02:05.011Z,100239.04
2023-03-18T12:05:12.296Z,100249.25
2023-03-18T12:08:26.843Z,100261.65
2023-03-18T12:11:55.946Z,100275.04
2023-03-18T12:14:48.064Z,100277.68
2023-03-18T12:17:59.730Z,100288.86
2023-03-18T12:21:17.053Z,100292.92
2023-03-18T12:24:28.192Z,100301.92
2023-03-18T12:27:37.055Z,100314.00
2023-03-18T12:30:57.251Z,100317.46
2023-03-18T12:33:56.655Z,100321.41
2023-03-18T12:37:06.811Z,100331.49
2023-03-18T12:40:13.182Z,100337.66
2023-03-18T12:43:34.648Z,100343.09
2023-03-18T12:46:38.002Z,100351.98
2023-03-18T12:49:51.312Z,100359.55
2023-03-18T12:52:56.533Z,100359.24
2023-03-18T12:56:04.159Z,100364.52
2023-03-18T12:59:19.658Z,100369.10
2023-03-18T13:02:43.842Z,100369.61
2023-03-18T13:05:57.421Z,100375.79
2023-03-18T13:09:05.142Z,100374.45
2023-03-18T13:12:07.590Z,100381.23
2023-03-18T13:15:17.107Z,100383.80
2023-03-18T13:18:15.475Z,100391.11
2023-03-18T13:21:30.872Z,100395.31
2023-03-18T13:24:54.155Z,100400.86
2023-03-18T13:28:17.796Z,100402.91
2023-03-18T13:31:35.805Z,100400.63
2023-03-18T13:35:00.377Z,100404.84
2023-03-18T13:38:28.364Z,100406.39
2023-03-18T13:41:32.739Z,100403.54
2023-03-18T13:44:28.728Z,100403.42
2023-03-18T13:47:40.725Z,100407.67
2023-03-18T13:50:37.562Z,100401.29
2023-03-18T13:53:29.135Z,100413.08
2023-03-18T13:56:30.164Z,100417.54
2023-03-18T13:59:48.676Z,100421.80
2023-03-18T14:03:02.605Z,100427.23
2023-03-18T14:06:23.937Z,100426.23
2023-03-18T14:09:30.821Z,100430.08
2023-03-18T14:12:42.357Z,100429.95
2023-03-18T14:15:45.799Z,100434.46
2023-03-18T14:18:59.361Z,100438.23
2023-03-18T14:22:09.484Z,100443.81
2023-03-18T14:25:27.578Z,100450.84
2023-03-18T14:28:24.407Z,100453.74
2023-03-18T14:31:53.887Z,100454.48
2023-03-18T14:34:57.723Z,100456.76
2023-03-18T14:38:03.848Z,100462.90
2023-03-18T14:41:05.212Z,100467.88
2023-03-18T14:44:09.268Z,100479.36
2023-03-18T14:47:13.702Z,100492.71
2023-03-18T14:50:08.982Z,100507.93
2023-03-18T14:53:17.310Z,100510.23
2023-03-18T14:56:17.778Z,100518.42
2023-03-18T14:59:27.555Z,100525.02
2023-03-18T15:02:39.656Z,100521.30
2023-03-18T15:05:47.937Z,100523.53
2023-03-18T15:09:02.272Z,100525.05
2023-03-18T15:12:20.408Z,100524.05
2023-03-18T15:15:16.409Z,100523.77
2023-03-18T15:18:29.671Z,100523.64
2023-03-18T15:21:30.835Z,100523.40
2023-03-18T15:24:27.081Z,100529.45
2023-03-18T15:27:25.150Z,100532.36
2023-03-18T15:30:31.162Z,100532.63
2023-03-18T15:33:41.920Z,100530.59
2023-03-18T15:36:56.125Z,100532.33
2023-03-18T15:39:46.891Z,100531.95
2023-03-18T15:42:44.328Z,100529.21
2023-03-18T15:45:36.147Z,100529.23
2023-03-18T15:48:33.038Z,100527.39
2023-03-18T15:51:32.195Z,100526.48
2023-03-18T15:54:28.747Z,100528.17
2023-03-18T15:57:25.352Z,100531.05
2023-03-18T16:00:16.367Z,100533.35
2023-03-18T16:03:16.954Z,100534.44
2023-03-18T16:06:07.876Z,100534.73
2023-03-18T16:08:58.658Z,100545.83
2023-03-18T16:11:53.938Z,100551.85
2023-03-18T16:14:45.529Z,100551.71
2023-03-18T16:17:36.260Z,100551.86
2023-03-18T16:20:36.924Z,100558.41
2023-03-18T16:23:32.007Z,100564.16
2023-03-18T16:26:42.818Z,100569.70
2023-03-18T16:29:38.383Z,100570.78
2023-03-18T16:32:32.024Z,100583.55
2023-03-18T16:35:34.794Z,100578.27
2023-03-18T16:38:41.217Z,100581.81
2023-03-18T16:41:34.303Z,100590.13
2023-03-18T16:44:25.230Z,100595.34
2023-03-18T16:47:22.742Z,100605.45
2023-03-18T16:50:36.110Z,100613.40
2023-03-18T16:53:38.054Z,100627.08
2023-03-18T16:56:50.013Z,100633.19
2023-03-18T17:00:22.435Z,100640.41
2023-03-18T17:03:13.849Z,100646.09
2023-03-18T17:06:04.826Z,100646.67
2023-03-18T17:09:05.621Z,100647.88
2023-03-18T17:12:17.442Z,100678.86
2023-03-18T17:15:12.874Z,100675.61
2023-03-18T17:18:06.915Z,100677.22
2023-03-18T17:21:17.997Z,100680.85
2023-03-18T17:24:23.052Z,100678.31
2023-03-18T17:27:26.431Z,100687.69
2023-03-18T17:30:21.844Z,100687.02
2023-03-18T17:33:33.734Z,100688.84
2023-03-18T17:36:28.115Z,100692.55
2023-03-18T17:39:23.591Z,100693.72
2023-03-18T17:42:35.434Z,100701.27
2023-03-18T17:45:46.965Z,100703.94
2023-03-18T17:48:42.327Z,100716.23
2023-03-18T17:51:48.841Z,100723.74
2023-03-18T17:54:59.513Z,100728.66
2023-03-18T17:57:55.202Z,100729.64
2023-03-18T18:01:07.660Z,100737.91
2023-03-18T18:04:15.959Z,100742.94
2023-03-18T18:07:19.356Z,100746.22
2023-03-18T18:10:16.711Z,100758.19
2023-03-18T18:13:22.619Z,100756.61
2023-03-18T18:16:24.678Z,100767.04
2023-03-18T18:19:36.386Z,100776.80
2023-03-18T18:22:48.507Z,100787.89
2023-03-18T18:25:49.686Z,100800.65
2023-03-18T18:29:00.646Z,100808.23
2023-03-18T18:32:11.626Z,100808.15
2023-03-18T18:35:25.276Z,100814.60
2023-03-18T18:38:16.323Z,100812.83
2023-03-18T18:41:27.453Z,100817.65
2023-03-18T18:44:38.347Z,100815.79
2023-03-18T18:47:49.216Z,100823.65
2023-03-18T18:51:00.381Z,100834.94
2023-03-18T18:54:11.217Z,100843.95
2023-03-18T18:57:05.829Z,100847.64
2023-03-18T19:00:19.892Z,100845.98
2023-03-18T19:03:32.629Z,100851.59
2023-03-18T19:06:44.324Z,100861.44
2023-03-18T19:09:48.205Z,100871.16
2023-03-18T19:12:58.624Z,100875.23
2023-03-18T19:16:24.670Z,100874.30
2023-03-18T19:19:35.762Z,100874.95
2023-03-18T19:22:35.325Z,100879.95
2023-03-18T19:25:45.597Z,100896.98
2023-03-18T19:28:59.648Z,100910.24
2023-03-18T19:32:15.633Z,100919.34
2023-03-18T19:35:27.242Z,100928.08
2023-03-18T19:38:49.319Z,100931.24
2023-03-18T19:42:00.162Z,100938.23
2023-03-18T19:45:13.634Z,100944.25
2023-03-18T19:48:23.849Z,100941.08
2023-03-18T19:51:34.014Z,100941.70
2023-03-18T19:54:45.794Z,100946.01
2023-03-18T19:57:57.843Z,100946.64
2023-03-18T20:01:09.503Z,100953.44
2023-03-18T20:04:21.810Z,100957.31
2023-03-18T20:07:34.393Z,100957.48
2023-03-18T20:10:45.785Z,100960.07
2023-03-18T20:13:57.434Z,100969.48
2023-03-18T20:17:26.349Z,100980.23
2023-03-18T20:20:37.408Z,100980.15
2023-03-18T20:23:48.487Z,100981.77
2023-03-18T20:26:59.391Z,100990.06
2023-03-18T20:30:22.283Z,100996.95
2023-03-18T20:33:33.534Z,101005.61
2023-03-18T20:36:44.367Z,101005.94
2023-03-18T20:39:55.595Z,101003.20
2023-03-18T20:43:06.442Z,101005.95
2023-03-18T20:46:14.103Z,101003.20
2023-03-18T20:49:25.558Z,101011.14
2023-03-18T20:52:37.029Z,101005.68
2023-03-18T20:55:48.931Z,101001.36
2023-03-18T20:58:59.903Z,101013.27
2023-03-18T21:02:24.190Z,101021.85
2023-03-18T21:05:35.206Z,101028.45
2023-03-18T21:08:46.660Z,101029.01
2023-03-18T21:11:57.483Z,101032.93
2023-03-18T21:15:15.415Z,101044.34
2023-03-18T21:18:36.824Z,101048.88
2023-03-18T21:21:46.970Z,101059.23
2023-03-18T21:24:58.200Z,101074.16
2023-03-18T21:28:11.370Z,101072.02
2023-03-18T21:31:25.019Z,101080.95
2023-03-18T21:34:36.414Z,101083.73
2023-03-18T21:37:47.151Z,101090.70
2023-03-18T21:40:58.652Z,101096.58
2023-03-18T21:44:12.616Z,101094.52
2023-03-18T21:47:24.912Z,101093.44
2023-03-18T21:50:37.846Z,101104.11
2023-03-18T21:53:50.178Z,101111.64
2023-03-18T21:56:51.000Z,101114.23
2023-03-18T22:00:02.741Z,101112.58
2023-03-18T22:03:17.256Z,101119.95
2023-03-18T22:06:28.142Z,101123.38
2023-03-18T22:09:39.215Z,101123.77
2023-03-18T22:12:50.838Z,101122.64
2023-03-18T22:16:02.291Z,101116.34
2023-03-18T22:19:13.315Z,101115.50
2023-03-18T22:22:26.473Z,101120.84
2023-03-18T22:25:37.631Z,101130.05
2023-03-18T22:28:49.906Z,101136.23
2023-03-18T22:32:01.215Z,101141.77
2023-03-18T22:35:14.798Z,101141.45
2023-03-18T22:38:26.450Z,101138.44
2023-03-18T22:41:37.447Z,101138.60
2023-03-18T22:44:48.504Z,101137.29
2023-03-18T22:48:00.190Z,101144.07
2023-03-18T22:51:14.076Z,101153.61
2023-03-18T22:54:26.526Z,101166.41
2023-03-18T22:57:37.317Z,101169.15
2023-03-18T23:00:36.269Z,101177.30
2023-03-18T23:03:47.708Z,101171.79
2023-03-18T23:06:58.763Z,101161.87
2023-03-18T23:10:11.090Z,101146.11
2023-03-18T23:13:26.191Z,101145.09
2023-03-18T23:16:36.918Z,101147.77
2023-03-18T23:19:48.081Z,101145.17
2023-03-18T23:22:59.143Z,101148.02
2023-03-18T23:26:09.937Z,101147.31
2023-03-18T23:29:20.905Z,101153.35
2023-03-18T23:32:31.746Z,101159.17
2023-03-18T23:35:43.321Z,101163.34
2023-03-18T23:38:54.628Z,101165.38
2023-03-18T23:42:05.904Z,101170.30
2023-03-18T23:45:16.910Z,101166.88
2023-03-18T23:48:28.777Z,101164.02
2023-03-18T23:51:39.974Z,101168.08
2023-03-18T23:54:51.861Z,101173.17
2023-03-18T23:58:03.232Z,101180.81
